sensor_id;sensor_type;location;lat;lon;timestamp;temperature;humidity
52531;DHT22;38441;52.894;6.040;2022-07-29T00:02:43;15.00;99.90
52531;DHT22;38441;52.894;6.040;2022-07-29T00:05:09;15.10;99.90
52531;DHT22;38441;52.894;6.040;2022-07-29T00:14:54;15.00;99.90
52531;DHT22;38441;52.894;6.040;2022-07-29T00:22:12;14.90;99.90
52531;DHT22;38441;52.894;6.040;2022-07-29T00:42:02;14.70;99.90
52531;DHT22;38441;52.894;6.040;2022-07-29T00:51:46;14.70;99.90
52531;DHT22;38441;52.894;6.040;2022-07-29T00:54:14;14.80;99.90
52531;DHT22;38441;52.894;6.040;2022-07-29T01:06:24;15.00;99.90
52531;DHT22;38441;52.894;6.040;2022-07-29T01:11:17;14.80;99.90
52531;DHT22;38441;52.894;6.040;2022-07-29T01:13:44;14.80;99.90
52531;DHT22;38441;52.894;6.040;2022-07-29T01:16:37;14.80;99.90
52531;DHT22;38441;52.894;6.040;2022-07-29T01:19:18;14.70;99.90
52531;DHT22;38441;52.894;6.040;2022-07-29T01:24:39;14.80;99.90
52531;DHT22;38441;52.894;6.040;2022-07-29T01:29:57;14.60;99.90
52531;DHT22;38441;52.894;6.040;2022-07-29T01:32:29;14.80;99.90
52531;DHT22;38441;52.894;6.040;2022-07-29T01:35:22;14.80;99.90
52531;DHT22;38441;52.894;6.040;2022-07-29T01:37:55;14.90;99.90
52531;DHT22;38441;52.894;6.040;2022-07-29T01:41:08;14.80;99.90
52531;DHT22;38441;52.894;6.040;2022-07-29T01:43:32;14.80;99.90
52531;DHT22;38441;52.894;6.040;2022-07-29T01:46:05;15.00;99.90
52531;DHT22;38441;52.894;6.040;2022-07-29T01:48:42;14.70;99.90
52531;DHT22;38441;52.894;6.040;2022-07-29T01:51:16;14.70;99.90
52531;DHT22;38441;52.894;6.040;2022-07-29T01:53:54;14.70;99.90
52531;DHT22;38441;52.894;6.040;2022-07-29T01:56:23;14.70;99.90
52531;DHT22;38441;52.894;6.040;2022-07-29T02:03:44;14.80;99.90
52531;DHT22;38441;52.894;6.040;2022-07-29T02:06:11;14.80;99.90
52531;DHT22;38441;52.894;6.040;2022-07-29T02:11:05;14.70;99.90
52531;DHT22;38441;52.894;6.040;2022-07-29T02:13:31;14.70;99.90
52531;DHT22;38441;52.894;6.040;2022-07-29T02:16:01;14.90;99.90
52531;DHT22;38441;52.894;6.040;2022-07-29T02:18:30;14.80;99.90
52531;DHT22;38441;52.894;6.040;2022-07-29T02:23:24;14.80;99.90
52531;DHT22;38441;52.894;6.040;2022-07-29T02:25:52;14.60;99.90
52531;DHT22;38441;52.894;6.040;2022-07-29T02:30:45;14.70;99.90
52531;DHT22;38441;52.894;6.040;2022-07-29T02:33:14;14.70;99.90
52531;DHT22;38441;52.894;6.040;2022-07-29T02:35:41;14.80;99.90
52531;DHT22;38441;52.894;6.040;2022-07-29T02:38:10;14.70;99.90
52531;DHT22;38441;52.894;6.040;2022-07-29T02:40:56;14.70;99.90
52531;DHT22;38441;52.894;6.040;2022-07-29T02:43:24;14.80;99.90
52531;DHT22;38441;52.894;6.040;2022-07-29T02:45:52;14.80;99.90
52531;DHT22;38441;52.894;6.040;2022-07-29T02:48:24;14.60;99.90
52531;DHT22;38441;52.894;6.040;2022-07-29T02:51:01;14.60;99.90
52531;DHT22;38441;52.894;6.040;2022-07-29T02:53:33;14.90;99.90
52531;DHT22;38441;52.894;6.040;2022-07-29T02:56:04;14.80;99.90
52531;DHT22;38441;52.894;6.040;2022-07-29T02:58:40;14.70;99.90
52531;DHT22;38441;52.894;6.040;2022-07-29T03:01:20;14.60;99.90
52531;DHT22;38441;52.894;6.040;2022-07-29T03:03:49;14.60;99.90
52531;DHT22;38441;52.894;6.040;2022-07-29T03:06:15;14.70;99.90
52531;DHT22;38441;52.894;6.040;2022-07-29T03:13:35;14.80;99.90
52531;DHT22;38441;52.894;6.040;2022-07-29T03:23:22;14.90;99.90
52531;DHT22;38441;52.894;6.040;2022-07-29T03:25:52;14.70;99.90
52531;DHT22;38441;52.894;6.040;2022-07-29T03:38:03;14.70;99.90
52531;DHT22;38441;52.894;6.040;2022-07-29T03:40:40;14.70;99.90
52531;DHT22;38441;52.894;6.040;2022-07-29T03:43:07;14.60;99.90
52531;DHT22;38441;52.894;6.040;2022-07-29T03:48:05;14.70;99.90
52531;DHT22;38441;52.894;6.040;2022-07-29T03:50:33;14.70;99.90
52531;DHT22;38441;52.894;6.040;2022-07-29T03:53:00;14.60;99.90
52531;DHT22;38441;52.894;6.040;2022-07-29T03:55:28;14.50;99.90
52531;DHT22;38441;52.894;6.040;2022-07-29T03:57:56;14.60;99.90
52531;DHT22;38441;52.894;6.040;2022-07-29T04:00:24;14.50;99.90
52531;DHT22;38441;52.894;6.040;2022-07-29T04:05:17;14.30;99.90
52531;DHT22;38441;52.894;6.040;2022-07-29T04:07:44;14.50;99.90
52531;DHT22;38441;52.894;6.040;2022-07-29T04:15:05;14.40;99.90
52531;DHT22;38441;52.894;6.040;2022-07-29T04:58:55;14.40;99.90
52531;DHT22;38441;52.894;6.040;2022-07-29T05:18:27;14.40;99.90
52531;DHT22;38441;52.894;6.040;2022-07-29T05:25:44;14.50;99.90
52531;DHT22;38441;52.894;6.040;2022-07-29T05:40:21;14.50;99.90
52531;DHT22;38441;52.894;6.040;2022-07-29T05:47:39;14.70;99.90
52531;DHT22;38441;52.894;6.040;2022-07-29T05:50:05;14.70;99.90
52531;DHT22;38441;52.894;6.040;2022-07-29T05:59:51;14.80;99.90
52531;DHT22;38441;52.894;6.040;2022-07-29T06:14:28;15.30;99.90
52531;DHT22;38441;52.894;6.040;2022-07-29T06:21:47;15.40;99.90
52531;DHT22;38441;52.894;6.040;2022-07-29T06:24:14;15.50;99.90
52531;DHT22;38441;52.894;6.040;2022-07-29T06:26:41;15.50;99.90
52531;DHT22;38441;52.894;6.040;2022-07-29T06:29:07;15.60;99.90
52531;DHT22;38441;52.894;6.040;2022-07-29T06:36:25;15.60;99.90
52531;DHT22;38441;52.894;6.040;2022-07-29T06:43:44;15.70;99.90
52531;DHT22;38441;52.894;6.040;2022-07-29T06:46:13;15.80;99.90
52531;DHT22;38441;52.894;6.040;2022-07-29T06:48:40;15.80;99.90
52531;DHT22;38441;52.894;6.040;2022-07-29T06:53:34;15.90;99.90
52531;DHT22;38441;52.894;6.040;2022-07-29T06:56:01;16.00;99.90
52531;DHT22;38441;52.894;6.040;2022-07-29T06:58:27;15.90;99.90
52531;DHT22;38441;52.894;6.040;2022-07-29T07:00:53;16.00;99.90
52531;DHT22;38441;52.894;6.040;2022-07-29T07:05:46;16.00;99.90
52531;DHT22;38441;52.894;6.040;2022-07-29T07:08:13;16.20;99.90
52531;DHT22;38441;52.894;6.040;2022-07-29T07:10:39;16.10;99.90
52531;DHT22;38441;52.894;6.040;2022-07-29T07:13:05;16.10;99.90
52531;DHT22;38441;52.894;6.040;2022-07-29T07:17:57;16.00;99.90
52531;DHT22;38441;52.894;6.040;2022-07-29T07:20:24;16.90;99.90
52531;DHT22;38441;52.894;6.040;2022-07-29T07:22:49;16.90;99.90
52531;DHT22;38441;52.894;6.040;2022-07-29T07:31:17;16.20;99.90
52531;DHT22;38441;52.894;6.040;2022-07-29T07:33:42;16.10;99.90
52531;DHT22;38441;52.894;6.040;2022-07-29T07:36:08;16.10;99.90
52531;DHT22;38441;52.894;6.040;2022-07-29T07:38:34;16.10;99.90
52531;DHT22;38441;52.894;6.040;2022-07-29T07:41:00;16.20;99.90
52531;DHT22;38441;52.894;6.040;2022-07-29T07:43:26;16.20;99.90
52531;DHT22;38441;52.894;6.040;2022-07-29T07:45:51;17.30;99.90
52531;DHT22;38441;52.894;6.040;2022-07-29T07:48:17;16.30;99.90
52531;DHT22;38441;52.894;6.040;2022-07-29T07:50:42;16.10;99.90
52531;DHT22;38441;52.894;6.040;2022-07-29T07:53:09;16.00;99.90
52531;DHT22;38441;52.894;6.040;2022-07-29T07:55:40;16.40;99.90
52531;DHT22;38441;52.894;6.040;2022-07-29T07:58:05;18.60;99.90
52531;DHT22;38441;52.894;6.040;2022-07-29T08:00:31;15.90;99.90
52531;DHT22;38441;52.894;6.040;2022-07-29T08:02:58;15.90;99.90
52531;DHT22;38441;52.894;6.040;2022-07-29T08:05:23;17.40;99.90
52531;DHT22;38441;52.894;6.040;2022-07-29T08:07:49;15.90;99.90
52531;DHT22;38441;52.894;6.040;2022-07-29T08:10:16;17.10;99.90
52531;DHT22;38441;52.894;6.040;2022-07-29T08:13:09;15.90;99.90
52531;DHT22;38441;52.894;6.040;2022-07-29T08:15:36;15.90;99.90
52531;DHT22;38441;52.894;6.040;2022-07-29T08:18:02;14.70;99.90
52531;DHT22;38441;52.894;6.040;2022-07-29T08:20:27;15.90;99.90
52531;DHT22;38441;52.894;6.040;2022-07-29T08:22:53;16.70;99.90
52531;DHT22;38441;52.894;6.040;2022-07-29T08:27:48;15.90;99.90
52531;DHT22;38441;52.894;6.040;2022-07-29T08:30:14;16.00;99.90
52531;DHT22;38441;52.894;6.040;2022-07-29T08:32:39;15.90;99.90
52531;DHT22;38441;52.894;6.040;2022-07-29T08:35:05;16.00;99.90
52531;DHT22;38441;52.894;6.040;2022-07-29T08:37:31;16.10;99.90
52531;DHT22;38441;52.894;6.040;2022-07-29T08:42:23;16.30;99.90
52531;DHT22;38441;52.894;6.040;2022-07-29T08:44:49;16.30;99.90
52531;DHT22;38441;52.894;6.040;2022-07-29T08:49:42;16.40;99.90
52531;DHT22;38441;52.894;6.040;2022-07-29T08:52:11;16.40;99.90
52531;DHT22;38441;52.894;6.040;2022-07-29T08:54:39;16.50;99.90
52531;DHT22;38441;52.894;6.040;2022-07-29T08:57:05;16.80;99.90
52531;DHT22;38441;52.894;6.040;2022-07-29T08:59:33;16.80;99.90
52531;DHT22;38441;52.894;6.040;2022-07-29T09:02:00;17.10;99.90
52531;DHT22;38441;52.894;6.040;2022-07-29T09:04:30;17.10;99.90
52531;DHT22;38441;52.894;6.040;2022-07-29T09:06:58;17.50;99.90
52531;DHT22;38441;52.894;6.040;2022-07-29T09:09:26;18.60;99.90
52531;DHT22;38441;52.894;6.040;2022-07-29T09:14:19;17.30;99.90
52531;DHT22;38441;52.894;6.040;2022-07-29T09:16:53;19.60;99.90
52531;DHT22;38441;52.894;6.040;2022-07-29T09:19:29;17.50;99.90
52531;DHT22;38441;52.894;6.040;2022-07-29T09:21:57;17.40;99.90
52531;DHT22;38441;52.894;6.040;2022-07-29T09:26:49;17.30;99.90
52531;DHT22;38441;52.894;6.040;2022-07-29T09:29:17;18.00;99.90
52531;DHT22;38441;52.894;6.040;2022-07-29T09:31:48;19.00;99.90
52531;DHT22;38441;52.894;6.040;2022-07-29T09:34:16;17.30;99.90
52531;DHT22;38441;52.894;6.040;2022-07-29T09:36:43;18.90;99.90
52531;DHT22;38441;52.894;6.040;2022-07-29T09:39:09;17.40;99.90
52531;DHT22;38441;52.894;6.040;2022-07-29T09:41:48;18.00;99.90
52531;DHT22;38441;52.894;6.040;2022-07-29T09:44:15;17.60;99.90
52531;DHT22;38441;52.894;6.040;2022-07-29T09:46:53;20.30;99.90
52531;DHT22;38441;52.894;6.040;2022-07-29T09:49:18;19.30;99.90
52531;DHT22;38441;52.894;6.040;2022-07-29T09:51:45;17.50;99.90
52531;DHT22;38441;52.894;6.040;2022-07-29T09:54:26;18.50;99.90
52531;DHT22;38441;52.894;6.040;2022-07-29T09:56:53;17.30;99.90
52531;DHT22;38441;52.894;6.040;2022-07-29T09:59:20;16.60;99.90
52531;DHT22;38441;52.894;6.040;2022-07-29T10:01:48;17.60;99.90
52531;DHT22;38441;52.894;6.040;2022-07-29T10:04:15;17.90;99.90
52531;DHT22;38441;52.894;6.040;2022-07-29T10:07:01;17.70;99.90
52531;DHT22;38441;52.894;6.040;2022-07-29T10:09:27;16.70;99.90
52531;DHT22;38441;52.894;6.040;2022-07-29T10:14:32;18.20;99.90
52531;DHT22;38441;52.894;6.040;2022-07-29T10:17:03;19.20;99.90
52531;DHT22;38441;52.894;6.040;2022-07-29T10:19:31;19.00;99.90
52531;DHT22;38441;52.894;6.040;2022-07-29T10:22:01;18.40;99.90
52531;DHT22;38441;52.894;6.040;2022-07-29T10:24:28;18.30;99.90
52531;DHT22;38441;52.894;6.040;2022-07-29T10:26:59;18.60;99.90
52531;DHT22;38441;52.894;6.040;2022-07-29T10:29:26;18.30;99.90
52531;DHT22;38441;52.894;6.040;2022-07-29T10:43:35;19.10;99.90
52531;DHT22;38441;52.894;6.040;2022-07-29T10:46:03;19.30;99.90
52531;DHT22;38441;52.894;6.040;2022-07-29T10:48:29;22.40;99.90
52531;DHT22;38441;52.894;6.040;2022-07-29T10:51:02;19.30;99.90
52531;DHT22;38441;52.894;6.040;2022-07-29T10:53:51;19.60;99.90
52531;DHT22;38441;52.894;6.040;2022-07-29T10:56:30;19.70;99.90
52531;DHT22;38441;52.894;6.040;2022-07-29T11:01:46;19.90;99.90
52531;DHT22;38441;52.894;6.040;2022-07-29T11:04:11;20.80;99.90
52531;DHT22;38441;52.894;6.040;2022-07-29T11:09:28;20.10;99.90
52531;DHT22;38441;52.894;6.040;2022-07-29T11:11:56;21.10;99.90
52531;DHT22;38441;52.894;6.040;2022-07-29T11:14:59;20.40;99.90
52531;DHT22;38441;52.894;6.040;2022-07-29T11:17:29;20.10;99.90
52531;DHT22;38441;52.894;6.040;2022-07-29T11:22:58;20.30;99.90
52531;DHT22;38441;52.894;6.040;2022-07-29T11:25:24;20.60;99.90
52531;DHT22;38441;52.894;6.040;2022-07-29T11:27:52;22.90;99.90
52531;DHT22;38441;52.894;6.040;2022-07-29T11:30:18;21.70;99.90
52531;DHT22;38441;52.894;6.040;2022-07-29T11:32:44;21.80;99.90
52531;DHT22;38441;52.894;6.040;2022-07-29T11:35:14;22.10;99.90
52531;DHT22;38441;52.894;6.040;2022-07-29T11:37:40;21.00;99.90
52531;DHT22;38441;52.894;6.040;2022-07-29T11:47:38;23.00;99.90
52531;DHT22;38441;52.894;6.040;2022-07-29T11:50:10;23.20;99.90
52531;DHT22;38441;52.894;6.040;2022-07-29T11:52:38;21.70;99.90
52531;DHT22;38441;52.894;6.040;2022-07-29T11:55:11;22.10;99.90
52531;DHT22;38441;52.894;6.040;2022-07-29T11:57:55;22.00;99.90
52531;DHT22;38441;52.894;6.040;2022-07-29T12:00:29;22.20;99.90
52531;DHT22;38441;52.894;6.040;2022-07-29T12:03:04;22.60;99.90
52531;DHT22;38441;52.894;6.040;2022-07-29T12:05:34;23.40;99.90
52531;DHT22;38441;52.894;6.040;2022-07-29T12:10:33;23.70;99.90
52531;DHT22;38441;52.894;6.040;2022-07-29T12:12:59;22.70;99.90
52531;DHT22;38441;52.894;6.040;2022-07-29T12:15:25;23.50;99.90
52531;DHT22;38441;52.894;6.040;2022-07-29T12:17:51;24.80;99.90
52531;DHT22;38441;52.894;6.040;2022-07-29T12:20:27;23.30;99.90
52531;DHT22;38441;52.894;6.040;2022-07-29T12:22:53;25.10;99.90
52531;DHT22;38441;52.894;6.040;2022-07-29T12:25:20;24.70;99.90
52531;DHT22;38441;52.894;6.040;2022-07-29T12:27:47;23.40;99.90
52531;DHT22;38441;52.894;6.040;2022-07-29T12:30:22;22.60;99.90
52531;DHT22;38441;52.894;6.040;2022-07-29T12:32:48;24.30;99.90
52531;DHT22;38441;52.894;6.040;2022-07-29T12:35:16;24.60;99.90
52531;DHT22;38441;52.894;6.040;2022-07-29T12:37:44;22.90;99.90
52531;DHT22;38441;52.894;6.040;2022-07-29T12:40:12;25.90;99.90
52531;DHT22;38441;52.894;6.040;2022-07-29T12:42:39;25.10;99.90
52531;DHT22;38441;52.894;6.040;2022-07-29T12:45:05;24.40;99.90
52531;DHT22;38441;52.894;6.040;2022-07-29T12:47:31;23.30;99.90
52531;DHT22;38441;52.894;6.040;2022-07-29T12:50:12;23.30;99.90
52531;DHT22;38441;52.894;6.040;2022-07-29T12:52:39;23.60;99.90
52531;DHT22;38441;52.894;6.040;2022-07-29T12:55:05;25.60;99.90
52531;DHT22;38441;52.894;6.040;2022-07-29T12:57:31;23.30;99.90
52531;DHT22;38441;52.894;6.040;2022-07-29T13:02:28;23.30;99.90
52531;DHT22;38441;52.894;6.040;2022-07-29T13:04:58;24.60;99.90
52531;DHT22;38441;52.894;6.040;2022-07-29T13:07:32;23.40;99.90
52531;DHT22;38441;52.894;6.040;2022-07-29T13:10:15;25.20;99.90
52531;DHT22;38441;52.894;6.040;2022-07-29T13:13:07;23.70;99.90
52531;DHT22;38441;52.894;6.040;2022-07-29T13:15:43;23.50;99.90
52531;DHT22;38441;52.894;6.040;2022-07-29T13:18:29;23.50;99.90
52531;DHT22;38441;52.894;6.040;2022-07-29T13:20:55;23.80;99.90
52531;DHT22;38441;52.894;6.040;2022-07-29T13:23:21;25.00;99.90
52531;DHT22;38441;52.894;6.040;2022-07-29T13:25:47;25.70;99.90
52531;DHT22;38441;52.894;6.040;2022-07-29T13:28:13;25.10;99.90
52531;DHT22;38441;52.894;6.040;2022-07-29T13:30:41;25.10;99.90
52531;DHT22;38441;52.894;6.040;2022-07-29T13:33:08;23.60;99.90
52531;DHT22;38441;52.894;6.040;2022-07-29T13:35:33;23.60;99.90
52531;DHT22;38441;52.894;6.040;2022-07-29T13:37:59;22.00;99.90
52531;DHT22;38441;52.894;6.040;2022-07-29T13:40:25;23.70;99.90
52531;DHT22;38441;52.894;6.040;2022-07-29T13:42:51;23.30;99.90
52531;DHT22;38441;52.894;6.040;2022-07-29T13:45:17;25.70;99.90
52531;DHT22;38441;52.894;6.040;2022-07-29T13:47:42;25.10;99.90
52531;DHT22;38441;52.894;6.040;2022-07-29T13:50:08;24.20;99.90
52531;DHT22;38441;52.894;6.040;2022-07-29T13:52:36;23.60;99.90
52531;DHT22;38441;52.894;6.040;2022-07-29T13:55:03;25.00;99.90
52531;DHT22;38441;52.894;6.040;2022-07-29T13:57:29;23.90;99.90
52531;DHT22;38441;52.894;6.040;2022-07-29T13:59:55;23.90;99.90
52531;DHT22;38441;52.894;6.040;2022-07-29T14:02:21;26.50;99.90
52531;DHT22;38441;52.894;6.040;2022-07-29T14:04:47;26.20;99.90
52531;DHT22;38441;52.894;6.040;2022-07-29T14:07:12;24.60;99.90
52531;DHT22;38441;52.894;6.040;2022-07-29T14:09:38;24.70;99.90
52531;DHT22;38441;52.894;6.040;2022-07-29T14:12:04;26.10;99.90
52531;DHT22;38441;52.894;6.040;2022-07-29T14:14:30;24.70;99.90
52531;DHT22;38441;52.894;6.040;2022-07-29T14:16:58;25.10;99.90
52531;DHT22;38441;52.894;6.040;2022-07-29T14:19:23;26.70;99.90
52531;DHT22;38441;52.894;6.040;2022-07-29T14:21:49;23.30;99.90
52531;DHT22;38441;52.894;6.040;2022-07-29T14:24:14;27.10;99.90
52531;DHT22;38441;52.894;6.040;2022-07-29T14:26:40;25.30;99.90
52531;DHT22;38441;52.894;6.040;2022-07-29T14:29:06;25.60;99.90
52531;DHT22;38441;52.894;6.040;2022-07-29T14:31:32;25.30;99.90
52531;DHT22;38441;52.894;6.040;2022-07-29T14:33:58;25.40;99.90
52531;DHT22;38441;52.894;6.040;2022-07-29T14:36:23;27.90;99.90
52531;DHT22;38441;52.894;6.040;2022-07-29T14:38:49;25.70;99.90
52531;DHT22;38441;52.894;6.040;2022-07-29T14:41:15;27.20;99.90
52531;DHT22;38441;52.894;6.040;2022-07-29T14:43:40;28.10;99.90
52531;DHT22;38441;52.894;6.040;2022-07-29T14:46:06;27.70;99.90
52531;DHT22;38441;52.894;6.040;2022-07-29T14:48:33;27.60;99.90
52531;DHT22;38441;52.894;6.040;2022-07-29T14:50:58;26.60;99.90
52531;DHT22;38441;52.894;6.040;2022-07-29T14:53:24;26.90;99.90
52531;DHT22;38441;52.894;6.040;2022-07-29T14:55:49;27.20;99.90
52531;DHT22;38441;52.894;6.040;2022-07-29T14:58:15;25.90;99.90
52531;DHT22;38441;52.894;6.040;2022-07-29T15:00:41;27.90;99.90
52531;DHT22;38441;52.894;6.040;2022-07-29T15:03:06;27.30;99.90
52531;DHT22;38441;52.894;6.040;2022-07-29T15:05:35;27.50;99.90
52531;DHT22;38441;52.894;6.040;2022-07-29T15:08:00;27.90;99.90
52531;DHT22;38441;52.894;6.040;2022-07-29T15:10:26;29.00;99.90
52531;DHT22;38441;52.894;6.040;2022-07-29T15:12:53;27.60;99.90
52531;DHT22;38441;52.894;6.040;2022-07-29T15:15:18;26.10;99.20
52531;DHT22;38441;52.894;6.040;2022-07-29T15:17:44;26.00;99.00
52531;DHT22;38441;52.894;6.040;2022-07-29T15:20:11;28.00;99.80
52531;DHT22;38441;52.894;6.040;2022-07-29T15:22:37;25.70;99.20
52531;DHT22;38441;52.894;6.040;2022-07-29T15:25:04;27.60;99.80
52531;DHT22;38441;52.894;6.040;2022-07-29T15:27:30;25.50;98.60
52531;DHT22;38441;52.894;6.040;2022-07-29T15:29:56;26.80;99.90
52531;DHT22;38441;52.894;6.040;2022-07-29T15:32:21;25.10;99.40
52531;DHT22;38441;52.894;6.040;2022-07-29T15:34:47;27.00;99.90
52531;DHT22;38441;52.894;6.040;2022-07-29T15:37:12;26.00;99.90
52531;DHT22;38441;52.894;6.040;2022-07-29T15:39:38;25.20;99.90
52531;DHT22;38441;52.894;6.040;2022-07-29T15:42:04;24.90;99.90
52531;DHT22;38441;52.894;6.040;2022-07-29T15:44:30;24.50;99.30
52531;DHT22;38441;52.894;6.040;2022-07-29T15:46:55;27.40;99.90
52531;DHT22;38441;52.894;6.040;2022-07-29T15:49:39;24.50;97.80
52531;DHT22;38441;52.894;6.040;2022-07-29T15:52:07;24.50;98.40
52531;DHT22;38441;52.894;6.040;2022-07-29T15:54:35;26.50;98.90
52531;DHT22;38441;52.894;6.040;2022-07-29T15:57:02;25.30;98.50
52531;DHT22;38441;52.894;6.040;2022-07-29T15:59:28;24.50;98.60
52531;DHT22;38441;52.894;6.040;2022-07-29T16:01:54;26.20;99.70
52531;DHT22;38441;52.894;6.040;2022-07-29T16:04:20;24.10;99.00
52531;DHT22;38441;52.894;6.040;2022-07-29T16:06:46;26.50;99.90
52531;DHT22;38441;52.894;6.040;2022-07-29T16:09:13;25.10;98.80
52531;DHT22;38441;52.894;6.040;2022-07-29T16:11:40;26.00;99.20
52531;DHT22;38441;52.894;6.040;2022-07-29T16:14:06;26.00;99.20
52531;DHT22;38441;52.894;6.040;2022-07-29T16:16:32;24.20;99.30
52531;DHT22;38441;52.894;6.040;2022-07-29T16:18:58;24.30;98.60
52531;DHT22;38441;52.894;6.040;2022-07-29T16:21:23;25.40;99.00
52531;DHT22;38441;52.894;6.040;2022-07-29T16:23:49;24.20;99.10
52531;DHT22;38441;52.894;6.040;2022-07-29T16:26:15;24.20;99.60
52531;DHT22;38441;52.894;6.040;2022-07-29T16:28:41;25.80;99.40
52531;DHT22;38441;52.894;6.040;2022-07-29T16:31:07;24.60;99.70
52531;DHT22;38441;52.894;6.040;2022-07-29T16:33:33;24.00;99.50
52531;DHT22;38441;52.894;6.040;2022-07-29T16:35:59;24.30;99.50
52531;DHT22;38441;52.894;6.040;2022-07-29T16:38:25;24.00;99.40
52531;DHT22;38441;52.894;6.040;2022-07-29T16:40:51;26.20;99.80
52531;DHT22;38441;52.894;6.040;2022-07-29T16:43:17;25.80;99.90
52531;DHT22;38441;52.894;6.040;2022-07-29T16:45:43;24.80;99.20
52531;DHT22;38441;52.894;6.040;2022-07-29T16:48:08;24.00;98.80
52531;DHT22;38441;52.894;6.040;2022-07-29T16:50:34;25.20;99.90
52531;DHT22;38441;52.894;6.040;2022-07-29T16:53:00;25.50;99.90
52531;DHT22;38441;52.894;6.040;2022-07-29T16:55:25;26.20;99.90
52531;DHT22;38441;52.894;6.040;2022-07-29T16:57:51;25.80;99.90
52531;DHT22;38441;52.894;6.040;2022-07-29T17:00:17;23.60;99.90
52531;DHT22;38441;52.894;6.040;2022-07-29T17:02:44;24.90;99.90
52531;DHT22;38441;52.894;6.040;2022-07-29T17:05:10;25.20;99.90
52531;DHT22;38441;52.894;6.040;2022-07-29T17:07:37;23.60;99.80
52531;DHT22;38441;52.894;6.040;2022-07-29T17:10:03;23.60;99.90
52531;DHT22;38441;52.894;6.040;2022-07-29T17:12:31;23.50;99.90
52531;DHT22;38441;52.894;6.040;2022-07-29T17:14:57;25.50;99.90
52531;DHT22;38441;52.894;6.040;2022-07-29T17:17:23;23.70;99.90
52531;DHT22;38441;52.894;6.040;2022-07-29T17:19:48;24.80;99.90
52531;DHT22;38441;52.894;6.040;2022-07-29T17:22:14;23.30;99.90
52531;DHT22;38441;52.894;6.040;2022-07-29T17:24:40;24.00;99.90
52531;DHT22;38441;52.894;6.040;2022-07-29T17:27:06;25.30;99.90
52531;DHT22;38441;52.894;6.040;2022-07-29T17:29:32;25.80;99.90
52531;DHT22;38441;52.894;6.040;2022-07-29T17:31:59;24.70;99.90
52531;DHT22;38441;52.894;6.040;2022-07-29T17:34:25;24.90;99.90
52531;DHT22;38441;52.894;6.040;2022-07-29T17:36:50;25.30;99.90
52531;DHT22;38441;52.894;6.040;2022-07-29T17:39:16;23.50;99.90
52531;DHT22;38441;52.894;6.040;2022-07-29T17:41:42;24.80;99.90
52531;DHT22;38441;52.894;6.040;2022-07-29T17:44:09;23.70;99.90
52531;DHT22;38441;52.894;6.040;2022-07-29T17:46:35;25.30;99.90
52531;DHT22;38441;52.894;6.040;2022-07-29T17:49:01;24.30;99.90
52531;DHT22;38441;52.894;6.040;2022-07-29T17:51:26;24.60;99.90
52531;DHT22;38441;52.894;6.040;2022-07-29T17:53:52;25.30;99.90
52531;DHT22;38441;52.894;6.040;2022-07-29T17:56:20;25.80;99.90
52531;DHT22;38441;52.894;6.040;2022-07-29T17:58:45;23.20;99.90
52531;DHT22;38441;52.894;6.040;2022-07-29T18:01:12;23.00;99.90
52531;DHT22;38441;52.894;6.040;2022-07-29T18:03:38;23.00;99.90
52531;DHT22;38441;52.894;6.040;2022-07-29T18:06:04;24.70;99.90
52531;DHT22;38441;52.894;6.040;2022-07-29T18:08:30;22.90;99.90
52531;DHT22;38441;52.894;6.040;2022-07-29T18:10:56;22.10;99.90
52531;DHT22;38441;52.894;6.040;2022-07-29T18:13:22;25.10;99.90
52531;DHT22;38441;52.894;6.040;2022-07-29T18:15:47;24.40;99.90
52531;DHT22;38441;52.894;6.040;2022-07-29T18:18:14;22.50;99.90
52531;DHT22;38441;52.894;6.040;2022-07-29T18:20:41;22.60;99.90
52531;DHT22;38441;52.894;6.040;2022-07-29T18:23:07;24.40;99.90
52531;DHT22;38441;52.894;6.040;2022-07-29T18:25:33;24.10;99.90
52531;DHT22;38441;52.894;6.040;2022-07-29T18:27:59;24.70;99.90
52531;DHT22;38441;52.894;6.040;2022-07-29T18:30:25;22.30;99.90
52531;DHT22;38441;52.894;6.040;2022-07-29T18:32:51;23.90;99.90
52531;DHT22;38441;52.894;6.040;2022-07-29T18:35:16;24.10;99.90
52531;DHT22;38441;52.894;6.040;2022-07-29T18:37:43;23.30;99.90
52531;DHT22;38441;52.894;6.040;2022-07-29T18:40:09;21.00;99.90
52531;DHT22;38441;52.894;6.040;2022-07-29T18:42:38;22.10;99.90
52531;DHT22;38441;52.894;6.040;2022-07-29T18:45:06;22.00;99.90
52531;DHT22;38441;52.894;6.040;2022-07-29T18:47:33;22.00;99.90
52531;DHT22;38441;52.894;6.040;2022-07-29T18:49:59;23.30;99.90
52531;DHT22;38441;52.894;6.040;2022-07-29T18:52:25;21.80;99.90
52531;DHT22;38441;52.894;6.040;2022-07-29T18:54:50;23.40;99.90
52531;DHT22;38441;52.894;6.040;2022-07-29T18:57:16;21.70;99.90
52531;DHT22;38441;52.894;6.040;2022-07-29T18:59:41;23.60;99.90
52531;DHT22;38441;52.894;6.040;2022-07-29T19:02:08;21.60;99.90
52531;DHT22;38441;52.894;6.040;2022-07-29T19:04:34;22.90;99.90
52531;DHT22;38441;52.894;6.040;2022-07-29T19:06:59;23.10;99.90
52531;DHT22;38441;52.894;6.040;2022-07-29T19:09:27;21.40;99.90
52531;DHT22;38441;52.894;6.040;2022-07-29T19:11:54;20.20;99.90
52531;DHT22;38441;52.894;6.040;2022-07-29T19:14:20;22.90;99.90
52531;DHT22;38441;52.894;6.040;2022-07-29T19:16:45;20.10;99.90
52531;DHT22;38441;52.894;6.040;2022-07-29T19:19:11;23.10;99.90
52531;DHT22;38441;52.894;6.040;2022-07-29T19:21:37;21.00;99.90
52531;DHT22;38441;52.894;6.040;2022-07-29T19:24:02;22.70;99.90
52531;DHT22;38441;52.894;6.040;2022-07-29T19:26:29;21.20;99.90
52531;DHT22;38441;52.894;6.040;2022-07-29T19:28:55;20.90;99.90
52531;DHT22;38441;52.894;6.040;2022-07-29T19:31:20;23.30;99.90
52531;DHT22;38441;52.894;6.040;2022-07-29T19:33:46;20.80;99.90
52531;DHT22;38441;52.894;6.040;2022-07-29T19:36:11;20.70;99.90
52531;DHT22;38441;52.894;6.040;2022-07-29T19:38:37;20.40;99.90
52531;DHT22;38441;52.894;6.040;2022-07-29T19:41:04;19.80;99.90
52531;DHT22;38441;52.894;6.040;2022-07-29T19:43:30;21.20;99.90
52531;DHT22;38441;52.894;6.040;2022-07-29T19:45:56;19.90;99.90
52531;DHT22;38441;52.894;6.040;2022-07-29T19:48:22;22.40;99.90
52531;DHT22;38441;52.894;6.040;2022-07-29T19:50:47;21.70;99.90
52531;DHT22;38441;52.894;6.040;2022-07-29T19:53:13;22.20;99.90
52531;DHT22;38441;52.894;6.040;2022-07-29T19:55:39;22.60;99.90
52531;DHT22;38441;52.894;6.040;2022-07-29T19:58:04;20.30;99.90
52531;DHT22;38441;52.894;6.040;2022-07-29T20:00:31;19.80;99.90
52531;DHT22;38441;52.894;6.040;2022-07-29T20:02:56;19.50;99.90
52531;DHT22;38441;52.894;6.040;2022-07-29T20:05:22;19.50;99.90
52531;DHT22;38441;52.894;6.040;2022-07-29T20:07:48;22.40;99.90
52531;DHT22;38441;52.894;6.040;2022-07-29T20:10:14;19.40;99.90